Clearview, Washington
Current Conditions -  °F | °C
As of 3:53 PM on Friday 19 Dec 2014 (Local Time) from KPAE Reporting Station
Broken Clouds Broken Clouds  
Wind Chill:   Ceiling: 6000
Heat Index:   Visibility: 10mi
Dew Point:   Wind: 12mph
Humidity: 71%   Direction: 160°SSE
Pressure: 29.94"   Gusts: NA
Location:  47.9468°N, 122.012°W
Report Text: KPAE 192353Z 16010KT 10SM SCT046 BKN060 09/04 A2994 RMK AO2 RAB18E35 SLP141 P0000 60000 T00890039 10100 20078 53006
Loading
Personal Weather Stations






























Interactive Weather Map New forecast layout! Learn more

10-Day Weather Forecast

Advertisements
Track Severe Weather on mobile